Zanzibar, Tanzania

7:30 PM EAT on February 09, 2016 (GMT +0300)
Kisauni | | Change Station
CLOSE
Current Station
Airport
Location: Zanzibar,
Elevation: 49 ft
Nearby Weather Stations

Elev 49 ft 6.22 °S, 39.22 °E | Updated 30 minutes ago

Mostly Cloudy
Mostly Cloudy
84 °F
Feels Like 92 °F
N
6
Wind Variable Wind from East

Today
High -- | Low -- °F
--% Chance of Precip.
Yesterday
High -- | Low -- °F
Precip. -- in
Pressure 29.80 in
Visibility 6.2 miles
Clouds Few 1800 ft
Mostly Cloudy 8000 ft
Heat Index 92 °F
Dew Point 75 °F
Humidity 74%
Rainfall 0.00 in
Snow Depth Not available.
6:27 AM 6:47 PM
New Moon, 2% visible
METAR HTZA 091600Z 09005KT 9999 FEW018 BKN080 29/24 Q1009 NOSIG
Pressure 29.80 in
Visibility 6.2 miles
Clouds Few 1800 ft
Mostly Cloudy 8000 ft
Heat Index 92 °F
Dew Point 75 °F
Humidity 74%
Rainfall 0.00 in
Snow Depth Not available.
6:27 AM 6:47 PM
New Moon, 2% visible
METAR HTZA 091600Z 09005KT 9999 FEW018 BKN080 29/24 Q1009 NOSIG

10-Day Weather Forecast

No radar image for this location.
×

Almanac

Astronomy

Feb. 09, 2016 Rise Set
Actual Time
Civil Twilight
Nautical Twilight
Astronomical Twilight
Moon
Length of Visible Light
Length of Day
Tomorrow will be .
, % of the Moon is Illuminated

Today's Extremes

Country Highs Country Lows

Community

WunderPhotos

Upload Photos

1,891,633 photos uploaded!

WunderBlog® & News

Nearby

Air Quality

  Air Quality AQ Index Pollutant
Not available.

Snow Depth

Station Depth Elevation

Earthquake Activity

City Distance Mag. Time & Date
Minimum magnitude displayed is 2.5.

Coastal Water Temperatures

Place Temperature

Stations

Nearby Weather Stations

Station Location Temp. Windchill Dew Point Humidity Wind Precip. Elev Updated Type